sensor_id;sensor_type;location;lat;lon;timestamp;P1;durP1;ratioP1;P2;durP2;ratioP2
2824;SDS011;1420;51.324;12.344;2023-04-03T00:00:47;846.20;;;787.48;;
2824;SDS011;1420;51.324;12.344;2023-04-03T00:03:14;893.93;;;814.28;;
2824;SDS011;1420;51.324;12.344;2023-04-03T00:05:41;788.95;;;741.90;;
2824;SDS011;1420;51.324;12.344;2023-04-03T00:08:09;891.85;;;823.32;;
2824;SDS011;1420;51.324;12.344;2023-04-03T00:10:36;823.57;;;772.18;;
2824;SDS011;1420;51.324;12.344;2023-04-03T00:13:03;934.13;;;850.43;;
2824;SDS011;1420;51.324;12.344;2023-04-03T00:15:31;667.65;;;616.08;;
2824;SDS011;1420;51.324;12.344;2023-04-03T00:17:58;815.02;;;747.07;;
2824;SDS011;1420;51.324;12.344;2023-04-03T00:20:25;742.10;;;697.97;;
2824;SDS011;1420;51.324;12.344;2023-04-03T00:22:53;909.37;;;839.53;;
2824;SDS011;1420;51.324;12.344;2023-04-03T00:25:20;1106.10;;;833.28;;
2824;SDS011;1420;51.324;12.344;2023-04-03T00:27:47;855.75;;;797.87;;
2824;SDS011;1420;51.324;12.344;2023-04-03T00:30:16;1641.18;;;770.50;;
2824;SDS011;1420;51.324;12.344;2023-04-03T00:32:42;876.67;;;816.27;;
2824;SDS011;1420;51.324;12.344;2023-04-03T00:35:10;758.72;;;713.03;;
2824;SDS011;1420;51.324;12.344;2023-04-03T00:37:37;884.83;;;794.47;;
2824;SDS011;1420;51.324;12.344;2023-04-03T00:40:05;867.92;;;787.50;;
2824;SDS011;1420;51.324;12.344;2023-04-03T00:42:33;880.00;;;810.87;;
2824;SDS011;1420;51.324;12.344;2023-04-03T00:45:34;804.22;;;744.10;;
2824;SDS011;1420;51.324;12.344;2023-04-03T00:47:48;811.55;;;755.58;;
2824;SDS011;1420;51.324;12.344;2023-04-03T00:50:15;867.02;;;797.40;;
2824;SDS011;1420;51.324;12.344;2023-04-03T00:52:42;819.53;;;770.28;;
2824;SDS011;1420;51.324;12.344;2023-04-03T00:55:10;778.97;;;732.35;;
2824;SDS011;1420;51.324;12.344;2023-04-03T00:57:37;772.32;;;711.52;;
2824;SDS011;1420;51.324;12.344;2023-04-03T01:00:05;758.62;;;709.65;;
2824;SDS011;1420;51.324;12.344;2023-04-03T01:02:32;1225.13;;;848.45;;
2824;SDS011;1420;51.324;12.344;2023-04-03T01:04:59;977.85;;;769.52;;
2824;SDS011;1420;51.324;12.344;2023-04-03T01:07:29;848.62;;;796.33;;
2824;SDS011;1420;51.324;12.344;2023-04-03T01:09:56;1041.00;;;939.18;;
2824;SDS011;1420;51.324;12.344;2023-04-03T01:12:24;730.93;;;667.87;;
2824;SDS011;1420;51.324;12.344;2023-04-03T01:14:53;914.48;;;824.90;;
2824;SDS011;1420;51.324;12.344;2023-04-03T01:17:30;713.75;;;643.15;;
2824;SDS011;1420;51.324;12.344;2023-04-03T01:22:41;796.03;;;746.75;;
2824;SDS011;1420;51.324;12.344;2023-04-03T01:25:06;839.48;;;778.80;;
2824;SDS011;1420;51.324;12.344;2023-04-03T01:27:33;904.20;;;825.10;;
2824;SDS011;1420;51.324;12.344;2023-04-03T01:30:01;825.80;;;765.42;;
2824;SDS011;1420;51.324;12.344;2023-04-03T01:32:28;735.08;;;680.72;;
2824;SDS011;1420;51.324;12.344;2023-04-03T01:34:55;766.85;;;717.53;;
2824;SDS011;1420;51.324;12.344;2023-04-03T01:37:22;1215.82;;;681.33;;
2824;SDS011;1420;51.324;12.344;2023-04-03T01:39:49;821.42;;;761.95;;
2824;SDS011;1420;51.324;12.344;2023-04-03T01:42:17;977.98;;;896.72;;
2824;SDS011;1420;51.324;12.344;2023-04-03T01:44:45;779.00;;;732.52;;
2824;SDS011;1420;51.324;12.344;2023-04-03T01:47:12;761.23;;;709.30;;
2824;SDS011;1420;51.324;12.344;2023-04-03T01:49:39;1284.67;;;749.28;;
2824;SDS011;1420;51.324;12.344;2023-04-03T01:52:06;812.25;;;758.17;;
2824;SDS011;1420;51.324;12.344;2023-04-03T01:54:34;930.27;;;837.62;;
2824;SDS011;1420;51.324;12.344;2023-04-03T01:57:02;761.78;;;706.37;;
2824;SDS011;1420;51.324;12.344;2023-04-03T01:59:29;925.90;;;846.83;;
2824;SDS011;1420;51.324;12.344;2023-04-03T02:01:56;655.75;;;506.65;;
2824;SDS011;1420;51.324;12.344;2023-04-03T02:04:23;912.80;;;826.47;;
2824;SDS011;1420;51.324;12.344;2023-04-03T02:06:50;637.63;;;584.53;;
2824;SDS011;1420;51.324;12.344;2023-04-03T02:09:18;736.83;;;678.38;;
2824;SDS011;1420;51.324;12.344;2023-04-03T02:11:45;960.33;;;875.62;;
2824;SDS011;1420;51.324;12.344;2023-04-03T02:14:13;730.07;;;587.15;;
2824;SDS011;1420;51.324;12.344;2023-04-03T02:16:40;1332.68;;;698.15;;
2824;SDS011;1420;51.324;12.344;2023-04-03T02:19:07;765.53;;;716.78;;
2824;SDS011;1420;51.324;12.344;2023-04-03T02:21:34;919.10;;;821.35;;
2824;SDS011;1420;51.324;12.344;2023-04-03T02:24:02;817.23;;;766.88;;
2824;SDS011;1420;51.324;12.344;2023-04-03T02:26:29;1233.88;;;782.82;;
2824;SDS011;1420;51.324;12.344;2023-04-03T02:28:56;888.33;;;798.05;;
2824;SDS011;1420;51.324;12.344;2023-04-03T02:31:24;872.13;;;559.67;;
2824;SDS011;1420;51.324;12.344;2023-04-03T02:33:52;711.58;;;644.88;;
2824;SDS011;1420;51.324;12.344;2023-04-03T02:36:20;827.33;;;776.58;;
2824;SDS011;1420;51.324;12.344;2023-04-03T02:38:47;1074.20;;;848.97;;
2824;SDS011;1420;51.324;12.344;2023-04-03T02:41:14;659.65;;;609.58;;
2824;SDS011;1420;51.324;12.344;2023-04-03T02:43:42;803.12;;;752.60;;
2824;SDS011;1420;51.324;12.344;2023-04-03T02:46:10;1303.58;;;746.98;;
2824;SDS011;1420;51.324;12.344;2023-04-03T02:48:38;677.68;;;621.35;;
2824;SDS011;1420;51.324;12.344;2023-04-03T02:51:05;808.55;;;735.45;;
2824;SDS011;1420;51.324;12.344;2023-04-03T02:53:32;896.08;;;829.60;;
2824;SDS011;1420;51.324;12.344;2023-04-03T02:55:59;848.18;;;794.40;;
2824;SDS011;1420;51.324;12.344;2023-04-03T02:58:26;756.95;;;710.57;;
2824;SDS011;1420;51.324;12.344;2023-04-03T03:00:54;843.93;;;790.15;;
2824;SDS011;1420;51.324;12.344;2023-04-03T03:03:22;902.08;;;840.78;;
2824;SDS011;1420;51.324;12.344;2023-04-03T03:05:50;888.92;;;801.13;;
2824;SDS011;1420;51.324;12.344;2023-04-03T03:08:17;788.32;;;733.38;;
2824;SDS011;1420;51.324;12.344;2023-04-03T03:10:44;870.83;;;796.07;;
2824;SDS011;1420;51.324;12.344;2023-04-03T03:13:11;648.67;;;605.68;;
2824;SDS011;1420;51.324;12.344;2023-04-03T03:15:39;792.52;;;741.48;;
2824;SDS011;1420;51.324;12.344;2023-04-03T03:18:06;952.03;;;867.50;;
2824;SDS011;1420;51.324;12.344;2023-04-03T03:20:34;749.77;;;702.63;;
2824;SDS011;1420;51.324;12.344;2023-04-03T03:23:01;757.28;;;710.95;;
2824;SDS011;1420;51.324;12.344;2023-04-03T03:25:29;696.65;;;655.25;;
2824;SDS011;1420;51.324;12.344;2023-04-03T03:27:57;1444.88;;;909.78;;
2824;SDS011;1420;51.324;12.344;2023-04-03T03:30:24;773.60;;;726.52;;
2824;SDS011;1420;51.324;12.344;2023-04-03T03:32:52;731.83;;;686.87;;
2824;SDS011;1420;51.324;12.344;2023-04-03T03:35:19;726.15;;;684.15;;
2824;SDS011;1420;51.324;12.344;2023-04-03T03:37:47;774.98;;;725.85;;
2824;SDS011;1420;51.324;12.344;2023-04-03T03:40:14;787.47;;;739.48;;
2824;SDS011;1420;51.324;12.344;2023-04-03T03:42:41;770.55;;;722.40;;
2824;SDS011;1420;51.324;12.344;2023-04-03T03:45:08;750.13;;;701.42;;
2824;SDS011;1420;51.324;12.344;2023-04-03T03:47:36;673.37;;;633.57;;
2824;SDS011;1420;51.324;12.344;2023-04-03T03:50:04;729.42;;;670.55;;
2824;SDS011;1420;51.324;12.344;2023-04-03T03:52:31;783.37;;;734.83;;
2824;SDS011;1420;51.324;12.344;2023-04-03T03:54:59;731.83;;;687.42;;
2824;SDS011;1420;51.324;12.344;2023-04-03T03:57:27;802.02;;;749.48;;
2824;SDS011;1420;51.324;12.344;2023-04-03T03:59:54;693.98;;;651.80;;
2824;SDS011;1420;51.324;12.344;2023-04-03T04:02:22;770.87;;;712.12;;
2824;SDS011;1420;51.324;12.344;2023-04-03T04:04:49;818.63;;;765.42;;
2824;SDS011;1420;51.324;12.344;2023-04-03T04:07:17;780.78;;;731.98;;
2824;SDS011;1420;51.324;12.344;2023-04-03T04:09:44;551.20;;;495.83;;
2824;SDS011;1420;51.324;12.344;2023-04-03T04:12:11;916.85;;;842.18;;
2824;SDS011;1420;51.324;12.344;2023-04-03T04:14:38;697.37;;;653.55;;
2824;SDS011;1420;51.324;12.344;2023-04-03T04:17:06;729.98;;;675.30;;
2824;SDS011;1420;51.324;12.344;2023-04-03T04:19:34;599.70;;;554.60;;
2824;SDS011;1420;51.324;12.344;2023-04-03T04:22:01;797.57;;;748.60;;
2824;SDS011;1420;51.324;12.344;2023-04-03T04:24:28;896.08;;;807.73;;
2824;SDS011;1420;51.324;12.344;2023-04-03T04:26:55;844.32;;;784.52;;
2824;SDS011;1420;51.324;12.344;2023-04-03T04:29:22;782.22;;;731.30;;
2824;SDS011;1420;51.324;12.344;2023-04-03T04:31:50;695.97;;;650.73;;
2824;SDS011;1420;51.324;12.344;2023-04-03T04:34:17;783.87;;;733.83;;
2824;SDS011;1420;51.324;12.344;2023-04-03T04:36:44;729.13;;;685.25;;
2824;SDS011;1420;51.324;12.344;2023-04-03T04:39:11;796.50;;;748.12;;
2824;SDS011;1420;51.324;12.344;2023-04-03T04:41:39;765.05;;;718.03;;
2824;SDS011;1420;51.324;12.344;2023-04-03T04:44:08;828.45;;;776.48;;
2824;SDS011;1420;51.324;12.344;2023-04-03T04:46:35;841.08;;;785.40;;
2824;SDS011;1420;51.324;12.344;2023-04-03T04:49:02;728.67;;;684.60;;
2824;SDS011;1420;51.324;12.344;2023-04-03T04:51:30;858.80;;;801.67;;
2824;SDS011;1420;51.324;12.344;2023-04-03T04:53:57;725.52;;;681.53;;
2824;SDS011;1420;51.324;12.344;2023-04-03T04:56:25;840.35;;;783.38;;
2824;SDS011;1420;51.324;12.344;2023-04-03T04:58:53;817.18;;;760.33;;
2824;SDS011;1420;51.324;12.344;2023-04-03T05:01:20;923.22;;;859.70;;
2824;SDS011;1420;51.324;12.344;2023-04-03T05:03:47;755.90;;;701.27;;
2824;SDS011;1420;51.324;12.344;2023-04-03T05:06:14;769.78;;;718.87;;
2824;SDS011;1420;51.324;12.344;2023-04-03T05:08:42;766.88;;;696.13;;
2824;SDS011;1420;51.324;12.344;2023-04-03T05:11:10;1999.90;;;999.90;;
2824;SDS011;1420;51.324;12.344;2023-04-03T05:13:37;769.37;;;702.02;;
2824;SDS011;1420;51.324;12.344;2023-04-03T05:16:04;841.57;;;788.62;;
2824;SDS011;1420;51.324;12.344;2023-04-03T05:18:32;772.97;;;711.30;;
2824;SDS011;1420;51.324;12.344;2023-04-03T05:20:59;872.27;;;816.17;;
2824;SDS011;1420;51.324;12.344;2023-04-03T05:23:27;798.58;;;632.95;;
2824;SDS011;1420;51.324;12.344;2023-04-03T05:25:54;973.05;;;889.22;;
2824;SDS011;1420;51.324;12.344;2023-04-03T05:28:22;851.43;;;795.35;;
2824;SDS011;1420;51.324;12.344;2023-04-03T05:30:53;336.37;;;307.57;;
2824;SDS011;1420;51.324;12.344;2023-04-03T05:33:21;136.58;;;120.97;;
2824;SDS011;1420;51.324;12.344;2023-04-03T05:35:49;72.65;;;54.77;;
2824;SDS011;1420;51.324;12.344;2023-04-03T05:38:17;708.87;;;666.13;;
2824;SDS011;1420;51.324;12.344;2023-04-03T05:40:44;899.75;;;841.63;;
2824;SDS011;1420;51.324;12.344;2023-04-03T05:43:11;895.08;;;832.02;;
2824;SDS011;1420;51.324;12.344;2023-04-03T05:45:38;885.17;;;806.32;;
2824;SDS011;1420;51.324;12.344;2023-04-03T05:48:05;950.87;;;882.43;;
2824;SDS011;1420;51.324;12.344;2023-04-03T05:50:33;674.22;;;634.15;;
2824;SDS011;1420;51.324;12.344;2023-04-03T05:53:01;683.53;;;643.35;;
2824;SDS011;1420;51.324;12.344;2023-04-03T05:55:29;690.37;;;649.35;;
2824;SDS011;1420;51.324;12.344;2023-04-03T05:57:56;787.43;;;738.83;;
2824;SDS011;1420;51.324;12.344;2023-04-03T06:00:24;845.62;;;775.95;;
2824;SDS011;1420;51.324;12.344;2023-04-03T06:02:52;812.47;;;764.20;;
2824;SDS011;1420;51.324;12.344;2023-04-03T06:05:19;468.72;;;442.75;;
2824;SDS011;1420;51.324;12.344;2023-04-03T06:07:47;558.93;;;528.08;;
2824;SDS011;1420;51.324;12.344;2023-04-03T06:10:14;655.03;;;616.77;;
2824;SDS011;1420;51.324;12.344;2023-04-03T06:12:41;329.20;;;311.68;;
2824;SDS011;1420;51.324;12.344;2023-04-03T06:15:08;810.97;;;757.90;;
2824;SDS011;1420;51.324;12.344;2023-04-03T06:17:37;734.35;;;683.87;;
2824;SDS011;1420;51.324;12.344;2023-04-03T06:20:05;574.43;;;541.52;;
2824;SDS011;1420;51.324;12.344;2023-04-03T06:22:32;252.97;;;237.38;;
2824;SDS011;1420;51.324;12.344;2023-04-03T06:25:00;490.52;;;459.55;;
2824;SDS011;1420;51.324;12.344;2023-04-03T06:27:28;273.62;;;257.40;;
2824;SDS011;1420;51.324;12.344;2023-04-03T06:29:56;250.37;;;235.22;;
2824;SDS011;1420;51.324;12.344;2023-04-03T06:32:24;315.33;;;296.93;;
2824;SDS011;1420;51.324;12.344;2023-04-03T06:34:52;404.68;;;380.58;;
2824;SDS011;1420;51.324;12.344;2023-04-03T06:37:20;382.97;;;362.07;;
2824;SDS011;1420;51.324;12.344;2023-04-03T06:39:46;614.23;;;576.10;;
2824;SDS011;1420;51.324;12.344;2023-04-03T06:42:13;565.97;;;532.00;;
2824;SDS011;1420;51.324;12.344;2023-04-03T06:44:41;565.08;;;527.75;;
2824;SDS011;1420;51.324;12.344;2023-04-03T06:47:09;506.53;;;476.53;;
2824;SDS011;1420;51.324;12.344;2023-04-03T06:49:36;589.18;;;551.77;;
2824;SDS011;1420;51.324;12.344;2023-04-03T06:52:03;508.37;;;476.25;;
2824;SDS011;1420;51.324;12.344;2023-04-03T06:54:31;892.15;;;807.32;;
2824;SDS011;1420;51.324;12.344;2023-04-03T06:56:59;408.72;;;386.08;;
2824;SDS011;1420;51.324;12.344;2023-04-03T06:59:27;676.07;;;626.85;;
2824;SDS011;1420;51.324;12.344;2023-04-03T07:01:54;551.77;;;515.02;;
2824;SDS011;1420;51.324;12.344;2023-04-03T07:04:21;930.72;;;849.90;;
2824;SDS011;1420;51.324;12.344;2023-04-03T07:06:49;602.97;;;564.85;;
2824;SDS011;1420;51.324;12.344;2023-04-03T07:09:16;1128.93;;;967.03;;
2824;SDS011;1420;51.324;12.344;2023-04-03T07:11:43;845.47;;;790.83;;
2824;SDS011;1420;51.324;12.344;2023-04-03T07:14:10;486.00;;;459.88;;
2824;SDS011;1420;51.324;12.344;2023-04-03T07:16:38;705.95;;;659.63;;
2824;SDS011;1420;51.324;12.344;2023-04-03T07:19:06;780.83;;;719.50;;
2824;SDS011;1420;51.324;12.344;2023-04-03T07:21:33;792.73;;;742.28;;
2824;SDS011;1420;51.324;12.344;2023-04-03T07:24:01;878.22;;;813.68;;
2824;SDS011;1420;51.324;12.344;2023-04-03T07:26:28;812.40;;;752.63;;
2824;SDS011;1420;51.324;12.344;2023-04-03T07:28:55;1429.13;;;965.87;;
2824;SDS011;1420;51.324;12.344;2023-04-03T07:31:23;552.60;;;524.05;;
2824;SDS011;1420;51.324;12.344;2023-04-03T07:33:50;626.72;;;593.12;;
2824;SDS011;1420;51.324;12.344;2023-04-03T07:36:19;634.13;;;598.40;;
2824;SDS011;1420;51.324;12.344;2023-04-03T07:38:44;819.20;;;766.43;;
2824;SDS011;1420;51.324;12.344;2023-04-03T07:41:14;832.53;;;771.70;;
2824;SDS011;1420;51.324;12.344;2023-04-03T07:43:40;814.98;;;763.37;;
2824;SDS011;1420;51.324;12.344;2023-04-03T07:46:08;763.95;;;717.22;;
2824;SDS011;1420;51.324;12.344;2023-04-03T07:48:35;711.03;;;669.53;;
2824;SDS011;1420;51.324;12.344;2023-04-03T07:51:03;874.18;;;802.98;;
2824;SDS011;1420;51.324;12.344;2023-04-03T07:53:29;763.33;;;703.15;;
2824;SDS011;1420;51.324;12.344;2023-04-03T07:55:57;875.95;;;813.25;;
2824;SDS011;1420;51.324;12.344;2023-04-03T07:58:24;1081.37;;;975.73;;
2824;SDS011;1420;51.324;12.344;2023-04-03T08:00:51;829.53;;;769.13;;
2824;SDS011;1420;51.324;12.344;2023-04-03T08:03:19;994.50;;;917.63;;
2824;SDS011;1420;51.324;12.344;2023-04-03T08:05:47;572.95;;;542.67;;
2824;SDS011;1420;51.324;12.344;2023-04-03T08:08:15;754.93;;;712.23;;
2824;SDS011;1420;51.324;12.344;2023-04-03T08:10:41;1235.82;;;999.90;;
2824;SDS011;1420;51.324;12.344;2023-04-03T08:13:09;884.45;;;814.92;;
2824;SDS011;1420;51.324;12.344;2023-04-03T08:15:36;550.77;;;522.77;;
2824;SDS011;1420;51.324;12.344;2023-04-03T08:18:04;609.65;;;576.88;;
2824;SDS011;1420;51.324;12.344;2023-04-03T08:20:31;806.45;;;758.22;;
2824;SDS011;1420;51.324;12.344;2023-04-03T08:22:58;845.53;;;773.90;;
2824;SDS011;1420;51.324;12.344;2023-04-03T08:25:25;768.07;;;723.15;;
2824;SDS011;1420;51.324;12.344;2023-04-03T08:27:52;890.55;;;827.67;;
2824;SDS011;1420;51.324;12.344;2023-04-03T08:30:20;781.70;;;735.72;;
2824;SDS011;1420;51.324;12.344;2023-04-03T08:32:48;945.12;;;852.25;;
2824;SDS011;1420;51.324;12.344;2023-04-03T08:35:16;1218.07;;;939.03;;
2824;SDS011;1420;51.324;12.344;2023-04-03T08:37:43;773.20;;;728.33;;
2824;SDS011;1420;51.324;12.344;2023-04-03T08:40:13;769.13;;;722.93;;
2824;SDS011;1420;51.324;12.344;2023-04-03T08:42:45;1017.03;;;910.88;;
2824;SDS011;1420;51.324;12.344;2023-04-03T08:45:16;818.53;;;767.27;;
2824;SDS011;1420;51.324;12.344;2023-04-03T08:47:45;1148.92;;;999.90;;
2824;SDS011;1420;51.324;12.344;2023-04-03T08:50:12;775.07;;;723.73;;
2824;SDS011;1420;51.324;12.344;2023-04-03T08:52:42;959.07;;;884.97;;
2824;SDS011;1420;51.324;12.344;2023-04-03T08:55:22;1051.55;;;964.38;;
2824;SDS011;1420;51.324;12.344;2023-04-03T08:57:49;717.45;;;677.88;;
2824;SDS011;1420;51.324;12.344;2023-04-03T09:00:18;932.57;;;869.98;;
2824;SDS011;1420;51.324;12.344;2023-04-03T09:02:47;698.88;;;653.73;;
2824;SDS011;1420;51.324;12.344;2023-04-03T09:05:16;785.77;;;721.27;;
2824;SDS011;1420;51.324;12.344;2023-04-03T09:10:28;1156.53;;;781.08;;
2824;SDS011;1420;51.324;12.344;2023-04-03T09:13:00;777.25;;;718.95;;
2824;SDS011;1420;51.324;12.344;2023-04-03T09:15:26;883.03;;;816.90;;
2824;SDS011;1420;51.324;12.344;2023-04-03T09:23:11;716.50;;;675.35;;
2824;SDS011;1420;51.324;12.344;2023-04-03T09:25:38;772.08;;;725.60;;
2824;SDS011;1420;51.324;12.344;2023-04-03T09:28:05;790.37;;;738.42;;
2824;SDS011;1420;51.324;12.344;2023-04-03T09:30:32;800.63;;;753.85;;
2824;SDS011;1420;51.324;12.344;2023-04-03T09:32:59;1244.37;;;999.90;;
2824;SDS011;1420;51.324;12.344;2023-04-03T09:35:29;879.47;;;821.28;;
2824;SDS011;1420;51.324;12.344;2023-04-03T09:37:59;1012.60;;;912.67;;
2824;SDS011;1420;51.324;12.344;2023-04-03T09:40:43;1074.28;;;971.50;;
2824;SDS011;1420;51.324;12.344;2023-04-03T09:43:31;840.45;;;781.62;;
2824;SDS011;1420;51.324;12.344;2023-04-03T09:48:37;875.53;;;818.52;;
2824;SDS011;1420;51.324;12.344;2023-04-03T09:51:08;833.32;;;784.90;;
2824;SDS011;1420;51.324;12.344;2023-04-03T09:53:34;1379.03;;;839.17;;
2824;SDS011;1420;51.324;12.344;2023-04-03T09:56:02;860.00;;;806.82;;
2824;SDS011;1420;51.324;12.344;2023-04-03T09:58:31;601.38;;;547.83;;
2824;SDS011;1420;51.324;12.344;2023-04-03T10:00:58;661.28;;;624.15;;
2824;SDS011;1420;51.324;12.344;2023-04-03T10:03:27;801.32;;;753.92;;
2824;SDS011;1420;51.324;12.344;2023-04-03T10:05:54;845.63;;;793.93;;
2824;SDS011;1420;51.324;12.344;2023-04-03T10:08:22;906.52;;;849.67;;
2824;SDS011;1420;51.324;12.344;2023-04-03T10:11:04;838.33;;;784.47;;
2824;SDS011;1420;51.324;12.344;2023-04-03T10:13:17;901.88;;;841.95;;
2824;SDS011;1420;51.324;12.344;2023-04-03T10:15:48;892.28;;;834.48;;
2824;SDS011;1420;51.324;12.344;2023-04-03T10:18:24;859.75;;;806.70;;
2824;SDS011;1420;51.324;12.344;2023-04-03T10:20:51;915.77;;;850.55;;
2824;SDS011;1420;51.324;12.344;2023-04-03T10:23:23;747.00;;;684.82;;
2824;SDS011;1420;51.324;12.344;2023-04-03T10:25:54;1280.47;;;763.12;;
2824;SDS011;1420;51.324;12.344;2023-04-03T10:30:57;1341.35;;;811.63;;
2824;SDS011;1420;51.324;12.344;2023-04-03T10:33:39;636.50;;;586.75;;
2824;SDS011;1420;51.324;12.344;2023-04-03T10:36:13;719.70;;;674.60;;
2824;SDS011;1420;51.324;12.344;2023-04-03T10:38:48;743.22;;;700.45;;
2824;SDS011;1420;51.324;12.344;2023-04-03T10:41:34;767.15;;;717.90;;
2824;SDS011;1420;51.324;12.344;2023-04-03T10:44:05;791.40;;;741.68;;
2824;SDS011;1420;51.324;12.344;2023-04-03T10:46:43;874.78;;;818.42;;
2824;SDS011;1420;51.324;12.344;2023-04-03T10:49:16;964.93;;;892.97;;
2824;SDS011;1420;51.324;12.344;2023-04-03T10:51:42;847.67;;;774.90;;
2824;SDS011;1420;51.324;12.344;2023-04-03T10:54:11;816.13;;;767.05;;
2824;SDS011;1420;51.324;12.344;2023-04-03T10:59:15;773.98;;;727.88;;
2824;SDS011;1420;51.324;12.344;2023-04-03T11:01:48;891.98;;;836.42;;
2824;SDS011;1420;51.324;12.344;2023-04-03T11:04:13;901.58;;;846.53;;
2824;SDS011;1420;51.324;12.344;2023-04-03T11:06:42;740.77;;;669.03;;
2824;SDS011;1420;51.324;12.344;2023-04-03T11:09:21;840.90;;;780.37;;
2824;SDS011;1420;51.324;12.344;2023-04-03T11:11:47;781.23;;;736.15;;
2824;SDS011;1420;51.324;12.344;2023-04-03T11:14:19;941.40;;;879.22;;
2824;SDS011;1420;51.324;12.344;2023-04-03T11:17:33;867.03;;;813.95;;
2824;SDS011;1420;51.324;12.344;2023-04-03T11:20:00;725.03;;;653.97;;
2824;SDS011;1420;51.324;12.344;2023-04-03T11:22:36;1999.90;;;999.90;;
2824;SDS011;1420;51.324;12.344;2023-04-03T11:27:54;1999.90;;;999.90;;
2824;SDS011;1420;51.324;12.344;2023-04-03T11:30:23;1999.90;;;999.90;;
2824;SDS011;1420;51.324;12.344;2023-04-03T11:32:56;1999.90;;;999.90;;
2824;SDS011;1420;51.324;12.344;2023-04-03T11:35:34;1999.90;;;999.90;;
2824;SDS011;1420;51.324;12.344;2023-04-03T11:38:02;1999.90;;;999.90;;
2824;SDS011;1420;51.324;12.344;2023-04-03T11:40:31;1999.90;;;999.90;;
2824;SDS011;1420;51.324;12.344;2023-04-03T11:45:50;1282.25;;;765.62;;
2824;SDS011;1420;51.324;12.344;2023-04-03T11:48:43;1999.90;;;999.90;;
2824;SDS011;1420;51.324;12.344;2023-04-03T11:51:41;1999.90;;;999.90;;
2824;SDS011;1420;51.324;12.344;2023-04-03T11:56:37;1999.90;;;999.90;;
2824;SDS011;1420;51.324;12.344;2023-04-03T12:01:54;1999.90;;;999.90;;
2824;SDS011;1420;51.324;12.344;2023-04-03T12:04:21;1999.90;;;999.90;;
2824;SDS011;1420;51.324;12.344;2023-04-03T12:07:11;1999.90;;;999.90;;
2824;SDS011;1420;51.324;12.344;2023-04-03T12:12:30;1999.90;;;999.90;;
2824;SDS011;1420;51.324;12.344;2023-04-03T12:17:36;1999.90;;;999.90;;
2824;SDS011;1420;51.324;12.344;2023-04-03T12:20:28;1999.90;;;999.90;;
2824;SDS011;1420;51.324;12.344;2023-04-03T12:22:31;1999.90;;;999.90;;
2824;SDS011;1420;51.324;12.344;2023-04-03T12:24:58;1999.90;;;999.90;;
2824;SDS011;1420;51.324;12.344;2023-04-03T12:27:27;1999.90;;;999.90;;
2824;SDS011;1420;51.324;12.344;2023-04-03T12:30:00;1999.90;;;999.90;;
2824;SDS011;1420;51.324;12.344;2023-04-03T12:35:38;1999.90;;;999.90;;
2824;SDS011;1420;51.324;12.344;2023-04-03T12:40:47;1999.90;;;999.90;;
2824;SDS011;1420;51.324;12.344;2023-04-03T12:43:41;1999.90;;;999.90;;
2824;SDS011;1420;51.324;12.344;2023-04-03T12:46:12;1999.90;;;999.90;;
2824;SDS011;1420;51.324;12.344;2023-04-03T12:51:29;1999.90;;;999.90;;
2824;SDS011;1420;51.324;12.344;2023-04-03T12:53:57;1999.90;;;999.90;;
2824;SDS011;1420;51.324;12.344;2023-04-03T12:56:25;1999.90;;;999.90;;
2824;SDS011;1420;51.324;12.344;2023-04-03T12:58:51;1048.80;;;517.37;;
2824;SDS011;1420;51.324;12.344;2023-04-03T13:01:21;1999.90;;;999.90;;
2824;SDS011;1420;51.324;12.344;2023-04-03T13:03:49;1999.90;;;999.90;;
2824;SDS011;1420;51.324;12.344;2023-04-03T13:06:21;1999.90;;;999.90;;
2824;SDS011;1420;51.324;12.344;2023-04-03T13:08:49;1999.90;;;999.90;;
2824;SDS011;1420;51.324;12.344;2023-04-03T13:11:15;1999.90;;;999.90;;
2824;SDS011;1420;51.324;12.344;2023-04-03T13:16:24;1999.90;;;999.90;;
2824;SDS011;1420;51.324;12.344;2023-04-03T13:18:52;1999.90;;;999.90;;
2824;SDS011;1420;51.324;12.344;2023-04-03T13:21:20;1999.90;;;999.90;;
2824;SDS011;1420;51.324;12.344;2023-04-03T13:23:48;1999.90;;;999.90;;
2824;SDS011;1420;51.324;12.344;2023-04-03T13:26:15;1999.90;;;999.90;;
2824;SDS011;1420;51.324;12.344;2023-04-03T13:28:42;1999.90;;;999.90;;
2824;SDS011;1420;51.324;12.344;2023-04-03T13:31:27;1999.90;;;999.90;;
2824;SDS011;1420;51.324;12.344;2023-04-03T13:33:55;1999.90;;;999.90;;
2824;SDS011;1420;51.324;12.344;2023-04-03T13:36:23;1999.90;;;999.90;;
2824;SDS011;1420;51.324;12.344;2023-04-03T13:41:32;1999.90;;;999.90;;
2824;SDS011;1420;51.324;12.344;2023-04-03T13:46:40;1999.90;;;999.90;;
2824;SDS011;1420;51.324;12.344;2023-04-03T13:51:44;1999.90;;;999.90;;
2824;SDS011;1420;51.324;12.344;2023-04-03T13:54:16;1999.90;;;999.90;;
2824;SDS011;1420;51.324;12.344;2023-04-03T13:56:40;1999.90;;;999.90;;
2824;SDS011;1420;51.324;12.344;2023-04-03T13:59:20;1999.90;;;999.90;;
2824;SDS011;1420;51.324;12.344;2023-04-03T14:01:52;1999.90;;;999.90;;
2824;SDS011;1420;51.324;12.344;2023-04-03T14:04:43;1999.90;;;999.90;;
2824;SDS011;1420;51.324;12.344;2023-04-03T14:07:00;1999.90;;;999.90;;
2824;SDS011;1420;51.324;12.344;2023-04-03T14:09:28;1999.90;;;999.90;;
2824;SDS011;1420;51.324;12.344;2023-04-03T14:11:58;1999.90;;;999.90;;
2824;SDS011;1420;51.324;12.344;2023-04-03T14:14:27;1999.90;;;999.90;;
2824;SDS011;1420;51.324;12.344;2023-04-03T14:16:54;1999.90;;;999.90;;
2824;SDS011;1420;51.324;12.344;2023-04-03T14:19:23;1999.90;;;999.90;;
2824;SDS011;1420;51.324;12.344;2023-04-03T14:21:49;1064.32;;;529.43;;
2824;SDS011;1420;51.324;12.344;2023-04-03T14:24:17;1999.90;;;999.90;;
2824;SDS011;1420;51.324;12.344;2023-04-03T14:26:45;1999.90;;;999.90;;
2824;SDS011;1420;51.324;12.344;2023-04-03T14:29:12;1999.90;;;999.90;;
2824;SDS011;1420;51.324;12.344;2023-04-03T14:31:39;1999.90;;;999.90;;
2824;SDS011;1420;51.324;12.344;2023-04-03T14:34:06;1999.90;;;999.90;;
2824;SDS011;1420;51.324;12.344;2023-04-03T14:36:33;1999.90;;;999.90;;
2824;SDS011;1420;51.324;12.344;2023-04-03T14:39:00;1999.90;;;999.90;;
2824;SDS011;1420;51.324;12.344;2023-04-03T14:41:28;1999.90;;;999.90;;
2824;SDS011;1420;51.324;12.344;2023-04-03T14:43:55;1999.90;;;999.90;;
2824;SDS011;1420;51.324;12.344;2023-04-03T14:46:31;1999.90;;;999.90;;
2824;SDS011;1420;51.324;12.344;2023-04-03T14:48:59;1103.53;;;549.08;;
2824;SDS011;1420;51.324;12.344;2023-04-03T14:51:26;1999.90;;;999.90;;
2824;SDS011;1420;51.324;12.344;2023-04-03T14:53:53;1999.90;;;999.90;;
2824;SDS011;1420;51.324;12.344;2023-04-03T14:56:23;1040.78;;;510.68;;
2824;SDS011;1420;51.324;12.344;2023-04-03T14:58:49;1999.90;;;999.90;;
2824;SDS011;1420;51.324;12.344;2023-04-03T15:01:17;1999.90;;;999.90;;
2824;SDS011;1420;51.324;12.344;2023-04-03T15:03:44;1999.90;;;999.90;;
2824;SDS011;1420;51.324;12.344;2023-04-03T15:06:11;1999.90;;;999.90;;
2824;SDS011;1420;51.324;12.344;2023-04-03T15:08:38;1999.90;;;999.90;;